Portada
METAR-TAF:

METAR-TAF

Aeroports :

Durham, Anglaterra

latitud: 54-31N, longitud: 001-25W, altitud: 37 m

Observació

L'informe es va fer fa 26 minuts, a les 06:50 UTC
Vent 6 kt del Oest
Temperatura 0°C
Humitat 86%
Pressió 996 hPa
Visibilitat 10 km o més
Escasses núvols a una alçada de 1800 ft

METAR: EGNV 260650Z 27006KT 9999 FEW018 00/M02 Q0996

Hora: 07:16 (07:16 UTC)

Pronòstic

L'informe es va fer fa 39 minuts, a les 06:37 UTC
Pronòstic vàlid del 26 a les 06 UTC al 26 a les 15 UTC
Vent 10 kt del Oest/Nord-Oest
Visibilitat 10 km o més
Escasses núvols a una alçada de 1500 ft
Probabilitat 30% :
Temporalment
l' 26 a les 09 UTC al 26 a les 15 UTC
Visibilitat: 7000 m
Cel ennuvolat a una alçada de 1200 ft
xàfecs de pluja

TAF: EGNV 260637Z 2606/2615 29010KT 9999 FEW015 PROB30 TEMPO 2609/2615 7000 SHRA BKN012

Observacions i pronòstics meteorològics de més de 4000 aeroports (METAR i TAF).

Les estacions disponibles són els punts grocs i vermells al mapa.

Posi el ratolí al punt desitjat per veure el nom de l'estació.

Feu clic per veure les observacions i els pronòstics meteorològics.

Per canviar el mapa: feu clic els botons verds amb una creu de color negre per apropar; al botó verd amb un guió per allunyar la imatge; o en les fletxes verdes per a mapes adjacents.


METAR-TAF: